sensor_id;sensor_type;location;lat;lon;timestamp;P1;durP1;ratioP1;P2;durP2;ratioP2
47455;SDS011;33202;48.512;-2.780;2024-03-23T00:53:25;13.00;;;2.25;;
47455;SDS011;33202;48.512;-2.780;2024-03-23T00:55:51;10.63;;;1.55;;
47455;SDS011;33202;48.512;-2.780;2024-03-23T00:58:18;12.73;;;1.60;;
47455;SDS011;33202;48.512;-2.780;2024-03-23T01:00:44;7.03;;;1.52;;
47455;SDS011;33202;48.512;-2.780;2024-03-23T01:03:09;12.95;;;1.70;;
47455;SDS011;33202;48.512;-2.780;2024-03-23T01:05:35;8.88;;;1.63;;
47455;SDS011;33202;48.512;-2.780;2024-03-23T01:08:02;9.65;;;1.88;;
47455;SDS011;33202;48.512;-2.780;2024-03-23T01:10:28;11.20;;;2.10;;
47455;SDS011;33202;48.512;-2.780;2024-03-23T01:12:54;7.93;;;1.52;;
47455;SDS011;33202;48.512;-2.780;2024-03-23T01:15:20;11.45;;;1.73;;
47455;SDS011;33202;48.512;-2.780;2024-03-23T01:17:46;7.03;;;1.50;;
47455;SDS011;33202;48.512;-2.780;2024-03-23T01:20:12;11.55;;;1.92;;
47455;SDS011;33202;48.512;-2.780;2024-03-23T01:22:38;8.82;;;1.90;;
47455;SDS011;33202;48.512;-2.780;2024-03-23T01:25:04;9.27;;;1.40;;
47455;SDS011;33202;48.512;-2.780;2024-03-23T01:27:30;5.50;;;1.35;;
47455;SDS011;33202;48.512;-2.780;2024-03-23T01:29:56;9.63;;;1.58;;
47455;SDS011;33202;48.512;-2.780;2024-03-23T01:32:21;9.10;;;1.33;;
47455;SDS011;33202;48.512;-2.780;2024-03-23T01:34:47;9.73;;;1.80;;
47455;SDS011;33202;48.512;-2.780;2024-03-23T01:37:14;9.05;;;1.40;;
47455;SDS011;33202;48.512;-2.780;2024-03-23T01:39:40;11.30;;;1.75;;
47455;SDS011;33202;48.512;-2.780;2024-03-23T01:42:06;8.32;;;1.48;;
47455;SDS011;33202;48.512;-2.780;2024-03-23T01:44:32;11.00;;;1.60;;
47455;SDS011;33202;48.512;-2.780;2024-03-23T01:46:58;8.80;;;1.33;;
47455;SDS011;33202;48.512;-2.780;2024-03-23T01:49:24;9.98;;;1.58;;
47455;SDS011;33202;48.512;-2.780;2024-03-23T01:51:50;8.75;;;2.00;;
47455;SDS011;33202;48.512;-2.780;2024-03-23T01:54:16;5.05;;;1.55;;
47455;SDS011;33202;48.512;-2.780;2024-03-23T01:56:42;8.73;;;1.83;;
47455;SDS011;33202;48.512;-2.780;2024-03-23T01:59:08;9.73;;;1.73;;
47455;SDS011;33202;48.512;-2.780;2024-03-23T02:01:37;11.75;;;1.50;;
47455;SDS011;33202;48.512;-2.780;2024-03-23T02:04:03;13.13;;;2.55;;
47455;SDS011;33202;48.512;-2.780;2024-03-23T02:06:30;12.13;;;1.80;;
47455;SDS011;33202;48.512;-2.780;2024-03-23T02:08:56;11.85;;;1.75;;
47455;SDS011;33202;48.512;-2.780;2024-03-23T02:11:22;9.10;;;1.75;;
47455;SDS011;33202;48.512;-2.780;2024-03-23T02:13:48;10.77;;;1.67;;
47455;SDS011;33202;48.512;-2.780;2024-03-23T02:16:14;8.95;;;1.77;;
47455;SDS011;33202;48.512;-2.780;2024-03-23T02:18:40;8.68;;;1.70;;
47455;SDS011;33202;48.512;-2.780;2024-03-23T02:21:06;9.10;;;1.25;;
47455;SDS011;33202;48.512;-2.780;2024-03-23T02:23:32;4.85;;;1.38;;
47455;SDS011;33202;48.512;-2.780;2024-03-23T02:25:58;8.80;;;1.55;;
47455;SDS011;33202;48.512;-2.780;2024-03-23T02:28:24;7.65;;;1.38;;
47455;SDS011;33202;48.512;-2.780;2024-03-23T02:30:50;12.52;;;1.70;;
47455;SDS011;33202;48.512;-2.780;2024-03-23T02:33:16;7.90;;;1.52;;
47455;SDS011;33202;48.512;-2.780;2024-03-23T02:35:43;7.63;;;1.50;;
47455;SDS011;33202;48.512;-2.780;2024-03-23T02:38:09;5.97;;;1.20;;
47455;SDS011;33202;48.512;-2.780;2024-03-23T02:40:35;11.45;;;2.00;;
47455;SDS011;33202;48.512;-2.780;2024-03-23T02:43:02;10.82;;;1.80;;
47455;SDS011;33202;48.512;-2.780;2024-03-23T02:45:28;9.10;;;1.40;;
47455;SDS011;33202;48.512;-2.780;2024-03-23T02:47:54;8.52;;;1.45;;
47455;SDS011;33202;48.512;-2.780;2024-03-23T02:50:20;7.35;;;1.38;;
47455;SDS011;33202;48.512;-2.780;2024-03-23T02:52:47;8.15;;;1.55;;
47455;SDS011;33202;48.512;-2.780;2024-03-23T02:55:13;8.20;;;1.15;;
47455;SDS011;33202;48.512;-2.780;2024-03-23T02:57:39;5.45;;;1.08;;
47455;SDS011;33202;48.512;-2.780;2024-03-23T03:00:05;5.78;;;1.00;;
47455;SDS011;33202;48.512;-2.780;2024-03-23T03:02:32;4.07;;;0.95;;
47455;SDS011;33202;48.512;-2.780;2024-03-23T03:04:58;5.75;;;1.15;;
47455;SDS011;33202;48.512;-2.780;2024-03-23T03:07:24;5.60;;;0.93;;
47455;SDS011;33202;48.512;-2.780;2024-03-23T03:09:50;6.95;;;1.20;;
47455;SDS011;33202;48.512;-2.780;2024-03-23T03:12:16;9.05;;;1.48;;
47455;SDS011;33202;48.512;-2.780;2024-03-23T03:14:42;5.30;;;0.98;;
47455;SDS011;33202;48.512;-2.780;2024-03-23T03:17:08;5.18;;;0.88;;
47455;SDS011;33202;48.512;-2.780;2024-03-23T03:19:34;4.85;;;0.73;;
47455;SDS011;33202;48.512;-2.780;2024-03-23T03:22:00;3.63;;;0.80;;
47455;SDS011;33202;48.512;-2.780;2024-03-23T03:24:26;7.45;;;1.38;;
47455;SDS011;33202;48.512;-2.780;2024-03-23T03:26:52;6.28;;;1.02;;
47455;SDS011;33202;48.512;-2.780;2024-03-23T03:29:18;5.35;;;0.80;;
47455;SDS011;33202;48.512;-2.780;2024-03-23T03:31:44;5.10;;;1.00;;
47455;SDS011;33202;48.512;-2.780;2024-03-23T03:34:11;5.75;;;0.90;;
47455;SDS011;33202;48.512;-2.780;2024-03-23T03:36:37;5.90;;;1.10;;
47455;SDS011;33202;48.512;-2.780;2024-03-23T03:39:03;5.90;;;1.00;;
47455;SDS011;33202;48.512;-2.780;2024-03-23T03:41:29;4.10;;;0.82;;
47455;SDS011;33202;48.512;-2.780;2024-03-23T03:43:55;4.15;;;0.93;;
47455;SDS011;33202;48.512;-2.780;2024-03-23T03:46:21;5.38;;;0.77;;
47455;SDS011;33202;48.512;-2.780;2024-03-23T03:48:47;6.22;;;0.88;;
47455;SDS011;33202;48.512;-2.780;2024-03-23T03:51:14;5.38;;;0.95;;
47455;SDS011;33202;48.512;-2.780;2024-03-23T03:53:40;5.45;;;0.80;;
47455;SDS011;33202;48.512;-2.780;2024-03-23T03:56:06;6.47;;;1.40;;
47455;SDS011;33202;48.512;-2.780;2024-03-23T03:58:32;3.33;;;0.63;;
47455;SDS011;33202;48.512;-2.780;2024-03-23T04:00:58;3.70;;;0.80;;
47455;SDS011;33202;48.512;-2.780;2024-03-23T04:03:24;4.72;;;0.90;;
47455;SDS011;33202;48.512;-2.780;2024-03-23T04:05:53;6.53;;;0.85;;
47455;SDS011;33202;48.512;-2.780;2024-03-23T04:08:20;3.53;;;0.90;;
47455;SDS011;33202;48.512;-2.780;2024-03-23T04:10:46;4.90;;;0.80;;
47455;SDS011;33202;48.512;-2.780;2024-03-23T04:13:12;5.72;;;1.10;;
47455;SDS011;33202;48.512;-2.780;2024-03-23T04:15:38;6.63;;;0.88;;
47455;SDS011;33202;48.512;-2.780;2024-03-23T04:18:04;4.18;;;0.73;;
47455;SDS011;33202;48.512;-2.780;2024-03-23T04:20:30;7.88;;;0.73;;
47455;SDS011;33202;48.512;-2.780;2024-03-23T04:22:57;7.70;;;1.40;;
47455;SDS011;33202;48.512;-2.780;2024-03-23T04:25:23;5.40;;;0.70;;
47455;SDS011;33202;48.512;-2.780;2024-03-23T04:27:49;2.65;;;0.80;;
47455;SDS011;33202;48.512;-2.780;2024-03-23T04:30:15;5.05;;;0.93;;
47455;SDS011;33202;48.512;-2.780;2024-03-23T04:32:41;6.65;;;1.17;;
47455;SDS011;33202;48.512;-2.780;2024-03-23T04:35:07;5.82;;;0.85;;
47455;SDS011;33202;48.512;-2.780;2024-03-23T04:37:37;3.92;;;0.80;;
47455;SDS011;33202;48.512;-2.780;2024-03-23T04:40:05;7.22;;;1.10;;
47455;SDS011;33202;48.512;-2.780;2024-03-23T04:42:32;4.30;;;1.23;;
47455;SDS011;33202;48.512;-2.780;2024-03-23T04:44:58;5.57;;;0.75;;
47455;SDS011;33202;48.512;-2.780;2024-03-23T04:47:24;7.22;;;1.13;;
47455;SDS011;33202;48.512;-2.780;2024-03-23T04:49:51;7.32;;;1.10;;
47455;SDS011;33202;48.512;-2.780;2024-03-23T04:52:17;6.55;;;1.00;;
47455;SDS011;33202;48.512;-2.780;2024-03-23T04:54:43;5.82;;;1.38;;
47455;SDS011;33202;48.512;-2.780;2024-03-23T04:57:10;5.15;;;1.40;;
47455;SDS011;33202;48.512;-2.780;2024-03-23T04:59:36;4.57;;;0.90;;
47455;SDS011;33202;48.512;-2.780;2024-03-23T05:02:02;7.85;;;1.30;;
47455;SDS011;33202;48.512;-2.780;2024-03-23T05:04:28;3.53;;;1.52;;
47455;SDS011;33202;48.512;-2.780;2024-03-23T05:06:54;3.67;;;1.02;;
47455;SDS011;33202;48.512;-2.780;2024-03-23T05:09:20;4.03;;;0.95;;
47455;SDS011;33202;48.512;-2.780;2024-03-23T05:11:46;4.63;;;0.82;;
47455;SDS011;33202;48.512;-2.780;2024-03-23T05:14:15;5.40;;;0.95;;
47455;SDS011;33202;48.512;-2.780;2024-03-23T05:16:41;6.13;;;1.75;;
47455;SDS011;33202;48.512;-2.780;2024-03-23T05:19:07;3.53;;;0.70;;
47455;SDS011;33202;48.512;-2.780;2024-03-23T05:21:33;4.60;;;0.90;;
47455;SDS011;33202;48.512;-2.780;2024-03-23T05:23:59;4.38;;;0.70;;
47455;SDS011;33202;48.512;-2.780;2024-03-23T05:26:25;3.58;;;0.70;;
47455;SDS011;33202;48.512;-2.780;2024-03-23T05:28:51;4.72;;;0.90;;
47455;SDS011;33202;48.512;-2.780;2024-03-23T05:31:24;3.60;;;0.80;;
47455;SDS011;33202;48.512;-2.780;2024-03-23T05:33:50;5.13;;;1.08;;
47455;SDS011;33202;48.512;-2.780;2024-03-23T05:36:16;5.18;;;0.95;;
47455;SDS011;33202;48.512;-2.780;2024-03-23T05:38:43;4.53;;;0.90;;
47455;SDS011;33202;48.512;-2.780;2024-03-23T05:41:09;3.35;;;0.90;;
47455;SDS011;33202;48.512;-2.780;2024-03-23T05:43:35;3.10;;;0.88;;
47455;SDS011;33202;48.512;-2.780;2024-03-23T05:46:01;2.97;;;0.80;;
47455;SDS011;33202;48.512;-2.780;2024-03-23T05:48:27;5.57;;;0.98;;
47455;SDS011;33202;48.512;-2.780;2024-03-23T05:50:55;3.95;;;0.80;;
47455;SDS011;33202;48.512;-2.780;2024-03-23T05:53:22;6.32;;;0.85;;
47455;SDS011;33202;48.512;-2.780;2024-03-23T05:55:48;5.13;;;0.93;;
47455;SDS011;33202;48.512;-2.780;2024-03-23T05:58:14;5.43;;;1.08;;
47455;SDS011;33202;48.512;-2.780;2024-03-23T06:00:41;7.78;;;1.30;;
47455;SDS011;33202;48.512;-2.780;2024-03-23T06:03:10;4.57;;;1.17;;
47455;SDS011;33202;48.512;-2.780;2024-03-23T06:05:36;7.97;;;1.33;;
47455;SDS011;33202;48.512;-2.780;2024-03-23T06:08:02;9.05;;;1.40;;
47455;SDS011;33202;48.512;-2.780;2024-03-23T06:10:28;7.75;;;1.30;;
47455;SDS011;33202;48.512;-2.780;2024-03-23T06:12:54;5.53;;;1.00;;
47455;SDS011;33202;48.512;-2.780;2024-03-23T06:15:21;6.45;;;1.23;;
47455;SDS011;33202;48.512;-2.780;2024-03-23T06:17:47;6.47;;;1.17;;
47455;SDS011;33202;48.512;-2.780;2024-03-23T06:20:13;5.93;;;1.27;;
47455;SDS011;33202;48.512;-2.780;2024-03-23T06:22:40;6.00;;;1.42;;
47455;SDS011;33202;48.512;-2.780;2024-03-23T06:25:06;5.65;;;1.10;;
47455;SDS011;33202;48.512;-2.780;2024-03-23T06:27:32;6.38;;;1.10;;
47455;SDS011;33202;48.512;-2.780;2024-03-23T06:30:01;3.92;;;1.00;;
47455;SDS011;33202;48.512;-2.780;2024-03-23T06:32:27;8.38;;;1.00;;
47455;SDS011;33202;48.512;-2.780;2024-03-23T06:34:56;4.40;;;0.82;;
47455;SDS011;33202;48.512;-2.780;2024-03-23T06:37:22;8.75;;;1.27;;
47455;SDS011;33202;48.512;-2.780;2024-03-23T06:39:48;10.15;;;1.90;;
47455;SDS011;33202;48.512;-2.780;2024-03-23T06:42:14;6.13;;;1.00;;
47455;SDS011;33202;48.512;-2.780;2024-03-23T06:44:40;6.53;;;1.02;;
47455;SDS011;33202;48.512;-2.780;2024-03-23T06:47:06;8.10;;;1.20;;
47455;SDS011;33202;48.512;-2.780;2024-03-23T06:49:32;7.93;;;1.30;;
47455;SDS011;33202;48.512;-2.780;2024-03-23T06:51:58;5.18;;;1.05;;
47455;SDS011;33202;48.512;-2.780;2024-03-23T06:54:24;8.57;;;1.45;;
47455;SDS011;33202;48.512;-2.780;2024-03-23T06:56:50;4.45;;;0.88;;
47455;SDS011;33202;48.512;-2.780;2024-03-23T06:59:16;5.35;;;1.33;;
47455;SDS011;33202;48.512;-2.780;2024-03-23T07:01:42;6.70;;;1.30;;
47455;SDS011;33202;48.512;-2.780;2024-03-23T07:04:08;11.25;;;1.90;;
47455;SDS011;33202;48.512;-2.780;2024-03-23T07:06:34;8.48;;;1.48;;
47455;SDS011;33202;48.512;-2.780;2024-03-23T07:09:07;6.47;;;1.45;;
47455;SDS011;33202;48.512;-2.780;2024-03-23T07:11:33;13.07;;;1.83;;
47455;SDS011;33202;48.512;-2.780;2024-03-23T07:13:59;6.32;;;1.17;;
47455;SDS011;33202;48.512;-2.780;2024-03-23T07:16:26;10.10;;;1.75;;
47455;SDS011;33202;48.512;-2.780;2024-03-23T07:18:52;8.43;;;1.55;;
47455;SDS011;33202;48.512;-2.780;2024-03-23T07:21:18;11.10;;;2.08;;
47455;SDS011;33202;48.512;-2.780;2024-03-23T07:23:44;7.28;;;1.17;;
47455;SDS011;33202;48.512;-2.780;2024-03-23T07:26:11;7.45;;;1.52;;
47455;SDS011;33202;48.512;-2.780;2024-03-23T07:28:37;9.25;;;2.40;;
47455;SDS011;33202;48.512;-2.780;2024-03-23T07:31:08;9.07;;;1.75;;
47455;SDS011;33202;48.512;-2.780;2024-03-23T07:33:35;10.70;;;1.83;;
47455;SDS011;33202;48.512;-2.780;2024-03-23T07:36:01;8.68;;;1.73;;
47455;SDS011;33202;48.512;-2.780;2024-03-23T07:38:28;9.87;;;1.73;;
47455;SDS011;33202;48.512;-2.780;2024-03-23T07:41:06;12.23;;;1.52;;
47455;SDS011;33202;48.512;-2.780;2024-03-23T07:43:33;12.10;;;1.55;;
47455;SDS011;33202;48.512;-2.780;2024-03-23T07:45:59;12.90;;;2.42;;
47455;SDS011;33202;48.512;-2.780;2024-03-23T07:48:25;21.07;;;2.63;;
47455;SDS011;33202;48.512;-2.780;2024-03-23T07:50:58;11.43;;;1.55;;
47455;SDS011;33202;48.512;-2.780;2024-03-23T07:53:24;6.68;;;1.33;;
47455;SDS011;33202;48.512;-2.780;2024-03-23T07:55:57;9.27;;;1.40;;
47455;SDS011;33202;48.512;-2.780;2024-03-23T07:58:24;9.70;;;2.08;;
47455;SDS011;33202;48.512;-2.780;2024-03-23T08:00:50;11.57;;;2.50;;
47455;SDS011;33202;48.512;-2.780;2024-03-23T08:03:16;7.35;;;1.80;;
47455;SDS011;33202;48.512;-2.780;2024-03-23T08:05:42;14.98;;;1.92;;
47455;SDS011;33202;48.512;-2.780;2024-03-23T08:08:08;9.63;;;2.03;;
47455;SDS011;33202;48.512;-2.780;2024-03-23T08:10:34;9.60;;;2.03;;
47455;SDS011;33202;48.512;-2.780;2024-03-23T08:13:00;18.00;;;2.53;;
47455;SDS011;33202;48.512;-2.780;2024-03-23T08:15:26;7.53;;;1.63;;
47455;SDS011;33202;48.512;-2.780;2024-03-23T08:17:52;4.50;;;1.23;;
47455;SDS011;33202;48.512;-2.780;2024-03-23T08:20:18;16.77;;;2.35;;
47455;SDS011;33202;48.512;-2.780;2024-03-23T08:22:44;16.88;;;2.17;;
47455;SDS011;33202;48.512;-2.780;2024-03-23T08:25:10;10.23;;;2.05;;
47455;SDS011;33202;48.512;-2.780;2024-03-23T08:27:36;13.18;;;2.15;;
47455;SDS011;33202;48.512;-2.780;2024-03-23T08:30:02;9.57;;;2.15;;
47455;SDS011;33202;48.512;-2.780;2024-03-23T08:32:28;12.80;;;2.40;;
47455;SDS011;33202;48.512;-2.780;2024-03-23T08:34:54;12.68;;;2.22;;
47455;SDS011;33202;48.512;-2.780;2024-03-23T08:37:20;10.80;;;2.13;;
47455;SDS011;33202;48.512;-2.780;2024-03-23T08:39:46;12.85;;;2.22;;
47455;SDS011;33202;48.512;-2.780;2024-03-23T08:42:12;15.05;;;1.75;;
47455;SDS011;33202;48.512;-2.780;2024-03-23T08:44:38;6.35;;;1.55;;
47455;SDS011;33202;48.512;-2.780;2024-03-23T08:47:05;9.70;;;2.23;;
47455;SDS011;33202;48.512;-2.780;2024-03-23T08:49:31;10.23;;;1.80;;
47455;SDS011;33202;48.512;-2.780;2024-03-23T08:51:57;9.70;;;1.75;;
47455;SDS011;33202;48.512;-2.780;2024-03-23T08:54:23;10.40;;;1.30;;
47455;SDS011;33202;48.512;-2.780;2024-03-23T08:56:51;10.60;;;1.75;;
47455;SDS011;33202;48.512;-2.780;2024-03-23T08:59:17;11.00;;;1.85;;
47455;SDS011;33202;48.512;-2.780;2024-03-23T09:04:11;11.60;;;1.67;;
47455;SDS011;33202;48.512;-2.780;2024-03-23T09:06:37;12.07;;;1.35;;
47455;SDS011;33202;48.512;-2.780;2024-03-23T09:09:03;13.63;;;1.80;;
47455;SDS011;33202;48.512;-2.780;2024-03-23T09:11:29;11.30;;;1.98;;
47455;SDS011;33202;48.512;-2.780;2024-03-23T09:13:55;11.25;;;1.92;;
47455;SDS011;33202;48.512;-2.780;2024-03-23T09:16:21;9.50;;;1.35;;
47455;SDS011;33202;48.512;-2.780;2024-03-23T09:18:47;12.32;;;2.22;;
47455;SDS011;33202;48.512;-2.780;2024-03-23T09:21:13;12.45;;;1.60;;
47455;SDS011;33202;48.512;-2.780;2024-03-23T09:23:39;10.47;;;1.90;;
47455;SDS011;33202;48.512;-2.780;2024-03-23T09:26:05;7.32;;;1.52;;
47455;SDS011;33202;48.512;-2.780;2024-03-23T09:28:34;9.75;;;1.50;;
47455;SDS011;33202;48.512;-2.780;2024-03-23T09:33:29;9.07;;;1.70;;
47455;SDS011;33202;48.512;-2.780;2024-03-23T09:35:55;8.75;;;1.50;;
47455;SDS011;33202;48.512;-2.780;2024-03-23T09:38:24;10.90;;;1.70;;
47455;SDS011;33202;48.512;-2.780;2024-03-23T09:40:52;12.63;;;2.33;;
47455;SDS011;33202;48.512;-2.780;2024-03-23T09:43:18;11.70;;;2.08;;
47455;SDS011;33202;48.512;-2.780;2024-03-23T09:45:45;11.02;;;1.73;;
47455;SDS011;33202;48.512;-2.780;2024-03-23T09:48:11;8.68;;;1.63;;
47455;SDS011;33202;48.512;-2.780;2024-03-23T09:50:41;9.50;;;1.65;;
47455;SDS011;33202;48.512;-2.780;2024-03-23T09:53:07;10.60;;;2.17;;
47455;SDS011;33202;48.512;-2.780;2024-03-23T09:55:34;10.85;;;1.42;;
47455;SDS011;33202;48.512;-2.780;2024-03-23T09:58:03;10.68;;;1.58;;
47455;SDS011;33202;48.512;-2.780;2024-03-23T10:00:33;12.63;;;1.95;;
47455;SDS011;33202;48.512;-2.780;2024-03-23T10:02:59;9.15;;;2.22;;
47455;SDS011;33202;48.512;-2.780;2024-03-23T10:05:30;7.93;;;1.27;;
47455;SDS011;33202;48.512;-2.780;2024-03-23T10:07:59;12.02;;;2.03;;
47455;SDS011;33202;48.512;-2.780;2024-03-23T10:10:25;12.53;;;2.87;;
47455;SDS011;33202;48.512;-2.780;2024-03-23T10:12:52;9.20;;;1.80;;
47455;SDS011;33202;48.512;-2.780;2024-03-23T10:15:24;11.43;;;1.95;;
47455;SDS011;33202;48.512;-2.780;2024-03-23T10:17:51;8.80;;;2.05;;
47455;SDS011;33202;48.512;-2.780;2024-03-23T10:20:20;9.13;;;2.10;;
47455;SDS011;33202;48.512;-2.780;2024-03-23T10:22:50;7.82;;;1.40;;
47455;SDS011;33202;48.512;-2.780;2024-03-23T10:25:17;10.82;;;2.08;;
47455;SDS011;33202;48.512;-2.780;2024-03-23T10:27:43;11.73;;;1.67;;
47455;SDS011;33202;48.512;-2.780;2024-03-23T10:30:12;10.18;;;2.05;;
47455;SDS011;33202;48.512;-2.780;2024-03-23T10:32:42;7.05;;;1.50;;
47455;SDS011;33202;48.512;-2.780;2024-03-23T10:35:17;7.53;;;1.50;;
47455;SDS011;33202;48.512;-2.780;2024-03-23T10:37:44;10.13;;;1.83;;
47455;SDS011;33202;48.512;-2.780;2024-03-23T10:40:11;8.15;;;1.60;;
47455;SDS011;33202;48.512;-2.780;2024-03-23T10:42:38;5.60;;;1.07;;
47455;SDS011;33202;48.512;-2.780;2024-03-23T10:45:04;6.53;;;0.85;;
47455;SDS011;33202;48.512;-2.780;2024-03-23T10:47:31;4.53;;;0.98;;
47455;SDS011;33202;48.512;-2.780;2024-03-23T10:49:57;7.70;;;1.38;;
47455;SDS011;33202;48.512;-2.780;2024-03-23T10:52:23;4.97;;;0.90;;
47455;SDS011;33202;48.512;-2.780;2024-03-23T10:54:51;5.30;;;1.13;;
47455;SDS011;33202;48.512;-2.780;2024-03-23T10:57:17;7.45;;;1.27;;
47455;SDS011;33202;48.512;-2.780;2024-03-23T10:59:45;5.70;;;0.82;;
47455;SDS011;33202;48.512;-2.780;2024-03-23T11:02:21;5.20;;;0.90;;
47455;SDS011;33202;48.512;-2.780;2024-03-23T11:04:47;4.70;;;0.63;;
47455;SDS011;33202;48.512;-2.780;2024-03-23T11:09:54;2.80;;;0.70;;
47455;SDS011;33202;48.512;-2.780;2024-03-23T11:14:48;7.82;;;1.05;;
47455;SDS011;33202;48.512;-2.780;2024-03-23T11:17:17;4.00;;;0.90;;
47455;SDS011;33202;48.512;-2.780;2024-03-23T11:19:44;5.75;;;1.33;;
47455;SDS011;33202;48.512;-2.780;2024-03-23T11:22:10;9.27;;;1.23;;
47455;SDS011;33202;48.512;-2.780;2024-03-23T11:24:36;6.97;;;1.10;;
47455;SDS011;33202;48.512;-2.780;2024-03-23T11:27:15;10.15;;;1.95;;
47455;SDS011;33202;48.512;-2.780;2024-03-23T11:29:41;4.35;;;1.10;;
47455;SDS011;33202;48.512;-2.780;2024-03-23T11:32:07;12.00;;;1.77;;
47455;SDS011;33202;48.512;-2.780;2024-03-23T11:34:36;7.88;;;1.15;;
47455;SDS011;33202;48.512;-2.780;2024-03-23T11:39:30;7.53;;;1.60;;
47455;SDS011;33202;48.512;-2.780;2024-03-23T11:41:56;13.45;;;2.20;;
47455;SDS011;33202;48.512;-2.780;2024-03-23T11:44:23;8.20;;;1.80;;
47455;SDS011;33202;48.512;-2.780;2024-03-23T11:46:49;12.73;;;1.57;;
47455;SDS011;33202;48.512;-2.780;2024-03-23T11:51:47;5.97;;;0.85;;
47455;SDS011;33202;48.512;-2.780;2024-03-23T11:54:13;5.03;;;1.10;;
47455;SDS011;33202;48.512;-2.780;2024-03-23T11:56:39;8.73;;;1.13;;
47455;SDS011;33202;48.512;-2.780;2024-03-23T11:59:08;5.47;;;1.10;;
47455;SDS011;33202;48.512;-2.780;2024-03-23T12:01:34;12.60;;;1.23;;
47455;SDS011;33202;48.512;-2.780;2024-03-23T12:04:00;4.82;;;0.80;;
47455;SDS011;33202;48.512;-2.780;2024-03-23T12:06:27;10.60;;;1.17;;
47455;SDS011;33202;48.512;-2.780;2024-03-23T12:08:53;7.20;;;1.33;;
47455;SDS011;33202;48.512;-2.780;2024-03-23T12:11:19;4.75;;;0.80;;
47455;SDS011;33202;48.512;-2.780;2024-03-23T12:13:47;7.68;;;0.88;;
47455;SDS011;33202;48.512;-2.780;2024-03-23T12:18:44;4.28;;;1.10;;
47455;SDS011;33202;48.512;-2.780;2024-03-23T12:21:11;4.20;;;0.80;;
47455;SDS011;33202;48.512;-2.780;2024-03-23T12:23:40;4.78;;;0.82;;
47455;SDS011;33202;48.512;-2.780;2024-03-23T12:26:07;3.92;;;0.90;;
47455;SDS011;33202;48.512;-2.780;2024-03-23T12:28:33;5.03;;;0.85;;
47455;SDS011;33202;48.512;-2.780;2024-03-23T12:30:59;6.40;;;0.68;;
47455;SDS011;33202;48.512;-2.780;2024-03-23T12:33:25;6.78;;;1.02;;
47455;SDS011;33202;48.512;-2.780;2024-03-23T12:35:51;4.13;;;0.70;;
47455;SDS011;33202;48.512;-2.780;2024-03-23T12:38:17;8.60;;;1.05;;
47455;SDS011;33202;48.512;-2.780;2024-03-23T12:40:47;6.90;;;1.20;;
47455;SDS011;33202;48.512;-2.780;2024-03-23T12:43:13;5.00;;;0.88;;
47455;SDS011;33202;48.512;-2.780;2024-03-23T12:45:39;7.53;;;1.20;;
47455;SDS011;33202;48.512;-2.780;2024-03-23T12:48:06;7.40;;;1.08;;
47455;SDS011;33202;48.512;-2.780;2024-03-23T12:50:32;7.18;;;1.40;;
47455;SDS011;33202;48.512;-2.780;2024-03-23T12:52:58;4.00;;;0.70;;
47455;SDS011;33202;48.512;-2.780;2024-03-23T12:55:24;6.40;;;0.90;;
47455;SDS011;33202;48.512;-2.780;2024-03-23T12:57:50;4.63;;;0.63;;
47455;SDS011;33202;48.512;-2.780;2024-03-23T13:00:16;4.45;;;0.90;;
47455;SDS011;33202;48.512;-2.780;2024-03-23T13:02:42;6.10;;;1.00;;
47455;SDS011;33202;48.512;-2.780;2024-03-23T13:05:08;6.95;;;1.25;;
47455;SDS011;33202;48.512;-2.780;2024-03-23T13:07:34;5.32;;;0.98;;
47455;SDS011;33202;48.512;-2.780;2024-03-23T13:10:00;6.22;;;0.95;;
47455;SDS011;33202;48.512;-2.780;2024-03-23T13:12:27;6.60;;;0.97;;
47455;SDS011;33202;48.512;-2.780;2024-03-23T13:14:53;6.20;;;1.00;;
47455;SDS011;33202;48.512;-2.780;2024-03-23T13:17:19;9.40;;;1.10;;
47455;SDS011;33202;48.512;-2.780;2024-03-23T13:19:45;5.53;;;0.85;;
47455;SDS011;33202;48.512;-2.780;2024-03-23T13:22:11;4.07;;;0.82;;
47455;SDS011;33202;48.512;-2.780;2024-03-23T13:24:37;5.72;;;1.10;;
47455;SDS011;33202;48.512;-2.780;2024-03-23T13:27:03;5.25;;;1.15;;
47455;SDS011;33202;48.512;-2.780;2024-03-23T13:29:32;6.70;;;1.20;;
47455;SDS011;33202;48.512;-2.780;2024-03-23T13:31:59;1.95;;;0.68;;
47455;SDS011;33202;48.512;-2.780;2024-03-23T13:34:25;5.63;;;0.60;;
47455;SDS011;33202;48.512;-2.780;2024-03-23T13:36:51;4.93;;;0.82;;
47455;SDS011;33202;48.512;-2.780;2024-03-23T13:39:17;5.82;;;0.88;;
47455;SDS011;33202;48.512;-2.780;2024-03-23T13:41:44;5.43;;;0.90;;
47455;SDS011;33202;48.512;-2.780;2024-03-23T13:44:11;2.65;;;0.60;;
47455;SDS011;33202;48.512;-2.780;2024-03-23T13:46:37;4.30;;;0.63;;
47455;SDS011;33202;48.512;-2.780;2024-03-23T13:49:07;7.65;;;1.35;;
47455;SDS011;33202;48.512;-2.780;2024-03-23T13:51:33;8.93;;;1.50;;
47455;SDS011;33202;48.512;-2.780;2024-03-23T13:53:59;7.40;;;1.40;;
47455;SDS011;33202;48.512;-2.780;2024-03-23T13:56:26;8.23;;;1.50;;
47455;SDS011;33202;48.512;-2.780;2024-03-23T13:58:53;5.63;;;1.23;;
47455;SDS011;33202;48.512;-2.780;2024-03-23T14:01:20;7.30;;;1.47;;
47455;SDS011;33202;48.512;-2.780;2024-03-23T14:03:46;10.95;;;1.55;;
47455;SDS011;33202;48.512;-2.780;2024-03-23T14:06:12;9.73;;;1.33;;
47455;SDS011;33202;48.512;-2.780;2024-03-23T14:08:38;7.90;;;1.40;;
47455;SDS011;33202;48.512;-2.780;2024-03-23T14:11:07;7.57;;;1.23;;
47455;SDS011;33202;48.512;-2.780;2024-03-23T14:13:34;7.10;;;1.33;;
47455;SDS011;33202;48.512;-2.780;2024-03-23T14:16:00;6.10;;;1.02;;
47455;SDS011;33202;48.512;-2.780;2024-03-23T14:18:26;6.93;;;1.23;;
47455;SDS011;33202;48.512;-2.780;2024-03-23T14:20:56;7.32;;;1.27;;
47455;SDS011;33202;48.512;-2.780;2024-03-23T14:23:26;12.88;;;2.25;;
47455;SDS011;33202;48.512;-2.780;2024-03-23T14:25:52;9.53;;;1.20;;
47455;SDS011;33202;48.512;-2.780;2024-03-23T14:28:18;6.57;;;1.50;;
47455;SDS011;33202;48.512;-2.780;2024-03-23T14:30:44;8.88;;;1.40;;
47455;SDS011;33202;48.512;-2.780;2024-03-23T14:33:10;6.07;;;0.88;;
47455;SDS011;33202;48.512;-2.780;2024-03-23T14:35:37;4.57;;;0.80;;
47455;SDS011;33202;48.512;-2.780;2024-03-23T14:38:04;2.75;;;0.50;;
47455;SDS011;33202;48.512;-2.780;2024-03-23T14:40:30;3.67;;;0.57;;
47455;SDS011;33202;48.512;-2.780;2024-03-23T14:42:56;4.50;;;0.50;;
47455;SDS011;33202;48.512;-2.780;2024-03-23T14:45:22;5.72;;;1.05;;
47455;SDS011;33202;48.512;-2.780;2024-03-23T14:47:50;6.93;;;1.20;;
47455;SDS011;33202;48.512;-2.780;2024-03-23T14:50:16;9.80;;;1.20;;
47455;SDS011;33202;48.512;-2.780;2024-03-23T14:52:44;10.60;;;1.50;;
47455;SDS011;33202;48.512;-2.780;2024-03-23T14:55:10;7.63;;;1.40;;
47455;SDS011;33202;48.512;-2.780;2024-03-23T14:57:36;9.77;;;1.60;;
47455;SDS011;33202;48.512;-2.780;2024-03-23T15:02:30;6.00;;;1.50;;
47455;SDS011;33202;48.512;-2.780;2024-03-23T15:04:57;8.85;;;1.42;;
47455;SDS011;33202;48.512;-2.780;2024-03-23T15:07:23;8.48;;;1.83;;
47455;SDS011;33202;48.512;-2.780;2024-03-23T15:09:49;9.00;;;1.60;;
47455;SDS011;33202;48.512;-2.780;2024-03-23T15:12:15;10.77;;;1.80;;
47455;SDS011;33202;48.512;-2.780;2024-03-23T15:14:41;8.40;;;2.35;;
47455;SDS011;33202;48.512;-2.780;2024-03-23T15:17:07;9.18;;;1.70;;
47455;SDS011;33202;48.512;-2.780;2024-03-23T15:19:34;11.88;;;1.83;;
47455;SDS011;33202;48.512;-2.780;2024-03-23T15:22:00;12.98;;;2.15;;
47455;SDS011;33202;48.512;-2.780;2024-03-23T15:24:26;11.85;;;1.85;;
47455;SDS011;33202;48.512;-2.780;2024-03-23T15:26:52;8.07;;;1.38;;
47455;SDS011;33202;48.512;-2.780;2024-03-23T15:29:18;5.25;;;1.13;;
47455;SDS011;33202;48.512;-2.780;2024-03-23T15:31:44;7.35;;;1.40;;
47455;SDS011;33202;48.512;-2.780;2024-03-23T15:34:11;8.27;;;1.63;;
47455;SDS011;33202;48.512;-2.780;2024-03-23T15:36:37;8.48;;;1.60;;
47455;SDS011;33202;48.512;-2.780;2024-03-23T15:39:04;9.95;;;1.40;;